Kirby, WY

2:42 PM MST on February 13, 2016 (GMT -0700)
Hot Springs County High School | | Change Station
CLOSE
Current Station
Personal Weather Station
Location: Thermopolis, WY
Elevation: 4327 ft
Nearby Weather Stations

Elev 4327 ft 43.65 °N, 108.21 °W | Updated 5 minutes ago

Overcast
Overcast
44.7 °F
Feels Like 41 °F
N
6.0
Wind Variable Wind from North
Gusts 19.0 mph

Today
High -- | Low -- °F
--% Chance of Precip.
Yesterday
High -- | Low -- °F
Precip. -- in
Pressure 29.92 in
Visibility 10.0 miles
Clouds Few 8000 ft
Overcast 10000 ft
Windchill 41 °F
Dew Point 32 °F
Humidity 60%
Rainfall 0.00 in
Snow Depth Not available.
7:14 AM 5:39 PM
Waxing Crescent, 34% visible
METAR KWRL 132053Z AUTO 34036G48KT 10SM FEW080 OVC100 05/M01 A2986 RMK AO2 PK WND 34048/2053 SLP131 T00501006 55015
Pressure 29.92 in
Visibility 10.0 miles
Clouds Few 8000 ft
Overcast 10000 ft
Windchill 41 °F
Dew Point 32 °F
Humidity 60%
Rainfall 0.00 in
Snow Depth Not available.
7:14 AM 5:39 PM
Waxing Crescent, 34% visible
METAR KWRL 132053Z AUTO 34036G48KT 10SM FEW080 OVC100 05/M01 A2986 RMK AO2 PK WND 34048/2053 SLP131 T00501006 55015

10-Day Weather Forecast

Almanac

Astronomy

Feb. 13, 2016 Rise Set
Actual Time
Civil Twilight
Nautical Twilight
Astronomical Twilight
Moon
Length of Visible Light
Length of Day
Tomorrow will be .
, % of the Moon is Illuminated

Today's Extremes

State Highs State Lows

Community

WunderPhotos

Upload Photos

1,892,682 photos uploaded!

WunderBlog® & News

Nearby

Air Quality

  Air Quality AQ Index Pollutant
Not available.

Snow Depth

Station Depth Elevation

Earthquake Activity

City Distance Mag. Time & Date
Minimum magnitude displayed is 2.5.

Coastal Water Temperatures

Place Temperature

Stations

Nearby Weather Stations

Station Location Temp. Windchill Dew Point Humidity Wind Precip. Elev Updated Type
                   

Watches & Warnings

High Wind Warning
Issued: 1:13 PM MST Feb. 13, 2016 – National Weather Service

... High Wind Warning in effect until 6 PM MST this evening...

The National Weather Service in Riverton has issued a High Wind
Warning... which is in effect until 6 PM MST this evening.

* Timing... high winds expected through 6 PM MST this evening.

* Winds... north to northwest winds 35 to 45 mph with gusts to 65
mph.

* Impacts... high cross winds may make travel difficult and
dangerous for high profile vehicles and drivers pulling light
trailers.

Precautionary/preparedness actions...

A High Wind Warning means a hazardous high wind event is expected
or occurring. Sustained wind speeds of at least 40 mph or gusts
of 58 mph or more can lead to property damage.